sensor_id;sensor_type;location;lat;lon;timestamp;pressure;altitude;pressure_sealevel;temperature;humidity
22830;BME280;11581;51.250;6.778;2023-07-31T00:00:49;100746.91;;;19.13;82.83
22830;BME280;11581;51.250;6.778;2023-07-31T00:03:17;100736.09;;;19.13;83.03
22830;BME280;11581;51.250;6.778;2023-07-31T00:05:44;100709.03;;;19.00;83.10
22830;BME280;11581;51.250;6.778;2023-07-31T00:08:11;100710.47;;;18.96;82.89
22830;BME280;11581;51.250;6.778;2023-07-31T00:10:40;100734.22;;;19.14;83.13
22830;BME280;11581;51.250;6.778;2023-07-31T00:13:07;100741.94;;;19.17;82.86
22830;BME280;11581;51.250;6.778;2023-07-31T00:15:34;100650.69;;;18.65;82.90
22830;BME280;11581;51.250;6.778;2023-07-31T00:18:01;100386.06;;;17.04;82.55
22830;BME280;11581;51.250;6.778;2023-07-31T00:20:29;100690.31;;;18.92;82.65
22830;BME280;11581;51.250;6.778;2023-07-31T00:22:55;100736.13;;;19.20;82.92
22830;BME280;11581;51.250;6.778;2023-07-31T00:25:23;100759.41;;;19.21;82.53
22830;BME280;11581;51.250;6.778;2023-07-31T00:27:51;100746.94;;;19.20;82.49
22830;BME280;11581;51.250;6.778;2023-07-31T00:30:18;100717.38;;;19.05;82.45
22830;BME280;11581;51.250;6.778;2023-07-31T00:32:45;100695.06;;;18.90;82.48
22830;BME280;11581;51.250;6.778;2023-07-31T00:35:12;100746.53;;;19.23;82.30
22830;BME280;11581;51.250;6.778;2023-07-31T00:37:39;100738.22;;;19.24;82.51
22830;BME280;11581;51.250;6.778;2023-07-31T00:40:08;100742.59;;;19.25;82.25
22830;BME280;11581;51.250;6.778;2023-07-31T00:42:35;100737.59;;;19.16;82.33
22830;BME280;11581;51.250;6.778;2023-07-31T00:45:04;100732.44;;;19.27;81.86
22830;BME280;11581;51.250;6.778;2023-07-31T00:47:32;100744.91;;;19.28;82.40
22830;BME280;11581;51.250;6.778;2023-07-31T00:49:59;100564.03;;;18.13;82.13
22830;BME280;11581;51.250;6.778;2023-07-31T00:52:30;100628.69;;;18.68;81.87
22830;BME280;11581;51.250;6.778;2023-07-31T00:54:59;100754.28;;;19.32;81.82
22830;BME280;11581;51.250;6.778;2023-07-31T00:57:26;100597.22;;;18.41;81.72
22830;BME280;11581;51.250;6.778;2023-07-31T00:59:54;100735.16;;;19.34;81.96
22830;BME280;11581;51.250;6.778;2023-07-31T01:02:22;100733.28;;;19.34;81.06
22830;BME280;11581;51.250;6.778;2023-07-31T01:04:51;100727.88;;;19.34;81.37
22830;BME280;11581;51.250;6.778;2023-07-31T01:07:24;100724.97;;;19.36;81.42
22830;BME280;11581;51.250;6.778;2023-07-31T01:09:57;100714.56;;;19.39;80.32
22830;BME280;11581;51.250;6.778;2023-07-31T01:12:27;100720.41;;;19.43;81.28
22830;BME280;11581;51.250;6.778;2023-07-31T01:15:03;100722.47;;;19.41;80.18
22830;BME280;11581;51.250;6.778;2023-07-31T01:17:31;100546.69;;;18.35;80.53
22830;BME280;11581;51.250;6.778;2023-07-31T01:20:01;100719.97;;;19.39;80.35
22830;BME280;11581;51.250;6.778;2023-07-31T01:23:08;100717.06;;;19.41;79.07
22830;BME280;11581;51.250;6.778;2023-07-31T01:25:50;100709.78;;;19.41;79.25
22830;BME280;11581;51.250;6.778;2023-07-31T01:28:26;100715.00;;;19.43;79.52
22830;BME280;11581;51.250;6.778;2023-07-31T01:30:57;100722.06;;;19.44;80.09
22830;BME280;11581;51.250;6.778;2023-07-31T01:33:27;100721.88;;;19.45;80.75
22830;BME280;11581;51.250;6.778;2023-07-31T01:35:55;100726.25;;;19.46;80.60
22830;BME280;11581;51.250;6.778;2023-07-31T01:38:24;100725.22;;;19.47;80.58
22830;BME280;11581;51.250;6.778;2023-07-31T01:40:54;100717.09;;;19.47;80.39
22830;BME280;11581;51.250;6.778;2023-07-31T01:43:25;100722.06;;;19.44;80.45
22830;BME280;11581;51.250;6.778;2023-07-31T01:45:52;100721.69;;;19.53;80.37
22830;BME280;11581;51.250;6.778;2023-07-31T01:48:19;100457.06;;;17.93;79.85
22830;BME280;11581;51.250;6.778;2023-07-31T01:50:46;100707.75;;;19.56;79.91
22830;BME280;11581;51.250;6.778;2023-07-31T01:53:15;100701.69;;;19.41;79.68
22830;BME280;11581;51.250;6.778;2023-07-31T01:55:41;100711.69;;;19.60;79.71
22830;BME280;11581;51.250;6.778;2023-07-31T01:58:10;100665.69;;;19.34;78.46
22830;BME280;11581;51.250;6.778;2023-07-31T02:00:37;100682.56;;;19.49;79.11
22830;BME280;11581;51.250;6.778;2023-07-31T02:03:06;100711.09;;;19.65;79.24
22830;BME280;11581;51.250;6.778;2023-07-31T02:05:34;100711.69;;;19.67;79.25
22830;BME280;11581;51.250;6.778;2023-07-31T02:08:01;100703.38;;;19.68;79.00
22830;BME280;11581;51.250;6.778;2023-07-31T02:10:28;100691.53;;;19.69;78.83
22830;BME280;11581;51.250;6.778;2023-07-31T02:12:56;100705.66;;;19.71;78.64
22830;BME280;11581;51.250;6.778;2023-07-31T02:15:24;100638.84;;;19.33;77.94
22830;BME280;11581;51.250;6.778;2023-07-31T02:17:52;100702.75;;;19.73;78.72
22830;BME280;11581;51.250;6.778;2023-07-31T02:20:19;100700.88;;;19.73;78.36
22830;BME280;11581;51.250;6.778;2023-07-31T02:22:46;100693.41;;;19.75;78.21
22830;BME280;11581;51.250;6.778;2023-07-31T02:25:13;100573.69;;;18.95;78.07
22830;BME280;11581;51.250;6.778;2023-07-31T02:27:40;100602.22;;;19.24;78.42
22830;BME280;11581;51.250;6.778;2023-07-31T02:30:10;100701.09;;;19.78;78.07
22830;BME280;11581;51.250;6.778;2023-07-31T02:32:39;100699.00;;;19.80;77.50
22830;BME280;11581;51.250;6.778;2023-07-31T02:35:06;100619.72;;;19.41;77.82
22830;BME280;11581;51.250;6.778;2023-07-31T02:37:33;100682.34;;;19.83;78.03
22830;BME280;11581;51.250;6.778;2023-07-31T02:40:02;100685.06;;;19.83;77.29
22830;BME280;11581;51.250;6.778;2023-07-31T02:42:29;100678.59;;;19.84;77.65
22830;BME280;11581;51.250;6.778;2023-07-31T02:44:56;100629.72;;;19.53;77.57
22830;BME280;11581;51.250;6.778;2023-07-31T02:47:23;100672.97;;;19.86;77.68
22830;BME280;11581;51.250;6.778;2023-07-31T02:49:51;100507.59;;;18.91;77.22
22830;BME280;11581;51.250;6.778;2023-07-31T02:52:18;100671.75;;;19.88;77.66
22830;BME280;11581;51.250;6.778;2023-07-31T02:54:45;100674.25;;;19.90;77.84
22830;BME280;11581;51.250;6.778;2023-07-31T02:57:12;100667.78;;;19.91;77.61
22830;BME280;11581;51.250;6.778;2023-07-31T02:59:39;100662.16;;;19.92;77.40
22830;BME280;11581;51.250;6.778;2023-07-31T03:02:06;100661.09;;;19.93;77.57
22830;BME280;11581;51.250;6.778;2023-07-31T03:04:33;100676.28;;;19.94;77.41
22830;BME280;11581;51.250;6.778;2023-07-31T03:07:03;100656.34;;;19.96;77.20
22830;BME280;11581;51.250;6.778;2023-07-31T03:09:30;100638.00;;;19.84;77.50
22830;BME280;11581;51.250;6.778;2023-07-31T03:11:59;100527.13;;;19.19;77.24
22830;BME280;11581;51.250;6.778;2023-07-31T03:14:27;100427.16;;;18.61;77.10
22830;BME280;11581;51.250;6.778;2023-07-31T03:16:54;100526.50;;;19.24;77.33
22830;BME280;11581;51.250;6.778;2023-07-31T03:19:21;100654.44;;;20.03;77.34
22830;BME280;11581;51.250;6.778;2023-07-31T03:21:48;100605.97;;;19.75;76.97
22830;BME280;11581;51.250;6.778;2023-07-31T03:24:17;100664.22;;;20.04;76.69
22830;BME280;11581;51.250;6.778;2023-07-31T03:26:44;100625.94;;;19.87;76.97
22830;BME280;11581;51.250;6.778;2023-07-31T03:29:23;100660.06;;;20.08;76.92
22830;BME280;11581;51.250;6.778;2023-07-31T03:31:49;100556.88;;;19.45;76.70
22830;BME280;11581;51.250;6.778;2023-07-31T03:34:16;100599.50;;;19.76;76.50
22830;BME280;11581;51.250;6.778;2023-07-31T03:36:43;100667.34;;;20.14;76.66
22830;BME280;11581;51.250;6.778;2023-07-31T03:39:11;100686.31;;;20.14;76.41
22830;BME280;11581;51.250;6.778;2023-07-31T03:41:39;100418.63;;;18.70;76.16
22830;BME280;11581;51.250;6.778;2023-07-31T03:44:06;100660.50;;;20.18;76.19
22830;BME280;11581;51.250;6.778;2023-07-31T03:46:33;100643.41;;;20.17;76.26
22830;BME280;11581;51.250;6.778;2023-07-31T03:49:01;100645.06;;;20.18;76.09
22830;BME280;11581;51.250;6.778;2023-07-31T03:51:30;100642.34;;;20.18;75.96
22830;BME280;11581;51.250;6.778;2023-07-31T03:53:56;100615.50;;;20.04;76.08
22830;BME280;11581;51.250;6.778;2023-07-31T03:56:23;100588.88;;;19.87;76.07
22830;BME280;11581;51.250;6.778;2023-07-31T03:58:51;100634.03;;;20.20;75.35
22830;BME280;11581;51.250;6.778;2023-07-31T04:01:19;100644.63;;;20.21;75.47
22830;BME280;11581;51.250;6.778;2023-07-31T04:03:46;100546.03;;;19.71;75.70
22830;BME280;11581;51.250;6.778;2023-07-31T04:06:13;100628.41;;;20.21;75.67
22830;BME280;11581;51.250;6.778;2023-07-31T04:08:43;100636.31;;;20.23;75.68
22830;BME280;11581;51.250;6.778;2023-07-31T04:11:10;100630.69;;;20.24;76.04
22830;BME280;11581;51.250;6.778;2023-07-31T04:13:38;100579.53;;;19.90;75.75
22830;BME280;11581;51.250;6.778;2023-07-31T04:16:06;100641.31;;;20.26;75.51
22830;BME280;11581;51.250;6.778;2023-07-31T04:18:33;100574.28;;;19.95;76.03
22830;BME280;11581;51.250;6.778;2023-07-31T04:21:01;100523.56;;;19.64;75.68
22830;BME280;11581;51.250;6.778;2023-07-31T04:23:28;100625.06;;;20.26;75.76
22830;BME280;11581;51.250;6.778;2023-07-31T04:25:55;100612.16;;;20.21;75.92
22830;BME280;11581;51.250;6.778;2023-07-31T04:28:23;100514.00;;;19.62;75.64
22830;BME280;11581;51.250;6.778;2023-07-31T04:30:51;100610.88;;;20.24;75.87
22830;BME280;11581;51.250;6.778;2023-07-31T04:33:19;100566.38;;;19.93;75.72
22830;BME280;11581;51.250;6.778;2023-07-31T04:35:50;100618.41;;;20.22;75.19
22830;BME280;11581;51.250;6.778;2023-07-31T04:38:18;100614.44;;;20.24;75.99
22830;BME280;11581;51.250;6.778;2023-07-31T04:40:45;100617.13;;;20.24;76.23
22830;BME280;11581;51.250;6.778;2023-07-31T04:43:12;100619.63;;;20.26;76.14
22830;BME280;11581;51.250;6.778;2023-07-31T04:45:39;100587.41;;;20.05;76.24
22830;BME280;11581;51.250;6.778;2023-07-31T04:48:07;100495.72;;;19.64;75.80
22830;BME280;11581;51.250;6.778;2023-07-31T04:50:35;100605.66;;;20.29;75.78
22830;BME280;11581;51.250;6.778;2023-07-31T04:53:02;100576.78;;;20.16;75.89
22830;BME280;11581;51.250;6.778;2023-07-31T04:55:29;100602.31;;;20.33;75.86
22830;BME280;11581;51.250;6.778;2023-07-31T04:57:57;100587.50;;;20.36;76.09
22830;BME280;11581;51.250;6.778;2023-07-31T05:00:24;100422.50;;;19.39;76.04
22830;BME280;11581;51.250;6.778;2023-07-31T05:02:51;100453.66;;;19.61;75.88
22830;BME280;11581;51.250;6.778;2023-07-31T05:05:17;100494.78;;;19.89;76.03
22830;BME280;11581;51.250;6.778;2023-07-31T05:07:46;100312.84;;;18.86;75.50
22830;BME280;11581;51.250;6.778;2023-07-31T05:10:13;100534.63;;;20.27;76.13
22830;BME280;11581;51.250;6.778;2023-07-31T05:12:40;100577.63;;;20.61;75.73
22830;BME280;11581;51.250;6.778;2023-07-31T05:15:09;100581.53;;;20.65;75.54
22830;BME280;11581;51.250;6.778;2023-07-31T05:17:36;100589.25;;;20.68;75.54
22830;BME280;11581;51.250;6.778;2023-07-31T05:20:07;100569.84;;;20.71;75.19
22830;BME280;11581;51.250;6.778;2023-07-31T05:22:34;100586.50;;;20.74;75.27
22830;BME280;11581;51.250;6.778;2023-07-31T05:25:03;100571.91;;;20.75;74.20
22830;BME280;11581;51.250;6.778;2023-07-31T05:27:31;100492.13;;;20.34;74.94
22830;BME280;11581;51.250;6.778;2023-07-31T05:29:58;100554.38;;;20.78;74.81
22830;BME280;11581;51.250;6.778;2023-07-31T05:32:25;100558.56;;;20.80;74.56
22830;BME280;11581;51.250;6.778;2023-07-31T05:34:52;100555.63;;;20.82;74.57
22830;BME280;11581;51.250;6.778;2023-07-31T05:37:20;100539.81;;;20.72;74.38
22830;BME280;11581;51.250;6.778;2023-07-31T05:39:48;100382.13;;;19.95;74.26
22830;BME280;11581;51.250;6.778;2023-07-31T05:42:17;100527.19;;;20.91;73.73
22830;BME280;11581;51.250;6.778;2023-07-31T05:44:44;100482.38;;;20.57;74.05
22830;BME280;11581;51.250;6.778;2023-07-31T05:47:11;100436.69;;;20.36;73.79
22830;BME280;11581;51.250;6.778;2023-07-31T05:49:37;100535.09;;;20.99;73.79
22830;BME280;11581;51.250;6.778;2023-07-31T05:52:05;100537.59;;;21.00;73.85
22830;BME280;11581;51.250;6.778;2023-07-31T05:54:32;100480.81;;;20.74;73.49
22830;BME280;11581;51.250;6.778;2023-07-31T05:56:59;100528.78;;;21.05;73.27
22830;BME280;11581;51.250;6.778;2023-07-31T05:59:29;100387.63;;;20.20;72.96
22830;BME280;11581;51.250;6.778;2023-07-31T06:01:58;100535.44;;;21.09;73.71
22830;BME280;11581;51.250;6.778;2023-07-31T06:04:27;100474.44;;;20.62;73.49
22830;BME280;11581;51.250;6.778;2023-07-31T06:06:53;100470.66;;;20.70;73.35
22830;BME280;11581;51.250;6.778;2023-07-31T06:09:21;100526.22;;;21.10;73.36
22830;BME280;11581;51.250;6.778;2023-07-31T06:11:48;100529.59;;;21.05;73.36
22830;BME280;11581;51.250;6.778;2023-07-31T06:14:15;100474.84;;;20.66;73.32
22830;BME280;11581;51.250;6.778;2023-07-31T06:16:44;100151.06;;;18.59;72.98
22830;BME280;11581;51.250;6.778;2023-07-31T06:19:11;100524.50;;;20.60;73.55
22830;BME280;11581;51.250;6.778;2023-07-31T06:21:40;100474.41;;;20.38;73.76
22830;BME280;11581;51.250;6.778;2023-07-31T06:24:08;100545.75;;;20.56;74.12
22830;BME280;11581;51.250;6.778;2023-07-31T06:26:35;100525.81;;;20.44;74.45
22830;BME280;11581;51.250;6.778;2023-07-31T06:29:02;100523.78;;;20.33;75.32
22830;BME280;11581;51.250;6.778;2023-07-31T06:31:28;100530.50;;;20.24;75.50
22830;BME280;11581;51.250;6.778;2023-07-31T06:33:57;100498.50;;;19.95;75.85
22830;BME280;11581;51.250;6.778;2023-07-31T06:36:24;100528.44;;;20.07;76.32
22830;BME280;11581;51.250;6.778;2023-07-31T06:38:50;100475.75;;;19.45;76.84
22830;BME280;11581;51.250;6.778;2023-07-31T06:41:20;100548.50;;;19.92;77.01
22830;BME280;11581;51.250;6.778;2023-07-31T06:43:47;100496.13;;;19.54;77.98
22830;BME280;11581;51.250;6.778;2023-07-31T06:46:14;100484.09;;;19.50;78.31
22830;BME280;11581;51.250;6.778;2023-07-31T06:48:40;100540.19;;;19.81;78.49
22830;BME280;11581;51.250;6.778;2023-07-31T06:51:09;100535.00;;;19.79;78.92
22830;BME280;11581;51.250;6.778;2023-07-31T06:53:36;100530.63;;;19.78;79.35
22830;BME280;11581;51.250;6.778;2023-07-31T06:56:05;100527.31;;;19.76;79.41
22830;BME280;11581;51.250;6.778;2023-07-31T06:58:45;100122.09;;;17.24;79.24
22830;BME280;11581;51.250;6.778;2023-07-31T07:01:12;100536.66;;;19.80;79.71
22830;BME280;11581;51.250;6.778;2023-07-31T07:03:40;100533.94;;;19.80;79.91
22830;BME280;11581;51.250;6.778;2023-07-31T07:06:09;100449.16;;;19.29;79.88
22830;BME280;11581;51.250;6.778;2023-07-31T07:08:35;100411.94;;;19.12;79.90
22830;BME280;11581;51.250;6.778;2023-07-31T07:11:02;100384.13;;;18.98;80.01
22830;BME280;11581;51.250;6.778;2023-07-31T07:13:31;100402.59;;;19.14;79.57
22830;BME280;11581;51.250;6.778;2023-07-31T07:15:58;100439.59;;;19.33;79.55
22830;BME280;11581;51.250;6.778;2023-07-31T07:18:25;100524.34;;;19.84;79.42
22830;BME280;11581;51.250;6.778;2023-07-31T07:20:53;100523.97;;;19.81;79.59
22830;BME280;11581;51.250;6.778;2023-07-31T07:23:24;100512.72;;;19.77;79.88
22830;BME280;11581;51.250;6.778;2023-07-31T07:25:52;100334.50;;;18.60;79.78
22830;BME280;11581;51.250;6.778;2023-07-31T07:28:20;100514.81;;;19.69;80.05
22830;BME280;11581;51.250;6.778;2023-07-31T07:30:51;100455.19;;;19.31;80.32
22830;BME280;11581;51.250;6.778;2023-07-31T07:33:17;100418.44;;;18.91;80.65
22830;BME280;11581;51.250;6.778;2023-07-31T07:35:44;100478.69;;;19.37;81.44
22830;BME280;11581;51.250;6.778;2023-07-31T07:38:13;100511.94;;;19.57;81.58
22830;BME280;11581;51.250;6.778;2023-07-31T07:40:41;100518.63;;;19.55;82.20
22830;BME280;11581;51.250;6.778;2023-07-31T07:43:08;100482.03;;;19.33;82.24
22830;BME280;11581;51.250;6.778;2023-07-31T07:45:35;100475.38;;;19.16;82.35
22830;BME280;11581;51.250;6.778;2023-07-31T07:48:02;100514.03;;;19.49;82.92
22830;BME280;11581;51.250;6.778;2023-07-31T07:50:29;100521.31;;;19.48;83.20
22830;BME280;11581;51.250;6.778;2023-07-31T07:52:57;100467.47;;;19.14;83.58
22830;BME280;11581;51.250;6.778;2023-07-31T07:55:23;100514.88;;;19.49;83.16
22830;BME280;11581;51.250;6.778;2023-07-31T07:57:52;100514.88;;;19.49;83.57
22830;BME280;11581;51.250;6.778;2023-07-31T08:00:19;100443.34;;;19.06;83.86
22830;BME280;11581;51.250;6.778;2023-07-31T08:02:48;100503.22;;;19.49;84.24
22830;BME280;11581;51.250;6.778;2023-07-31T08:05:15;100427.53;;;19.03;84.01
22830;BME280;11581;51.250;6.778;2023-07-31T08:07:43;100434.41;;;18.99;84.09
22830;BME280;11581;51.250;6.778;2023-07-31T08:10:09;100505.28;;;19.53;84.31
22830;BME280;11581;51.250;6.778;2023-07-31T08:12:36;100507.78;;;19.55;84.12
22830;BME280;11581;51.250;6.778;2023-07-31T08:15:07;100484.91;;;19.44;83.67
22830;BME280;11581;51.250;6.778;2023-07-31T08:17:34;100468.06;;;19.42;84.09
22830;BME280;11581;51.250;6.778;2023-07-31T08:20:00;100430.03;;;19.18;84.08
22830;BME280;11581;51.250;6.778;2023-07-31T08:22:28;100470.56;;;19.50;84.02
22830;BME280;11581;51.250;6.778;2023-07-31T08:24:54;100450.81;;;19.43;83.56
22830;BME280;11581;51.250;6.778;2023-07-31T08:27:21;100480.72;;;19.61;83.25
22830;BME280;11581;51.250;6.778;2023-07-31T08:29:48;100490.50;;;19.62;83.31
22830;BME280;11581;51.250;6.778;2023-07-31T08:32:16;100445.41;;;19.37;83.33
22830;BME280;11581;51.250;6.778;2023-07-31T08:34:43;100377.44;;;19.14;83.28
22830;BME280;11581;51.250;6.778;2023-07-31T08:37:10;100465.16;;;19.50;83.12
22830;BME280;11581;51.250;6.778;2023-07-31T08:39:37;100455.78;;;19.53;83.16
22830;BME280;11581;51.250;6.778;2023-07-31T08:42:07;100489.00;;;19.73;82.37
22830;BME280;11581;51.250;6.778;2023-07-31T08:44:34;100462.00;;;19.60;82.86
22830;BME280;11581;51.250;6.778;2023-07-31T08:47:02;100247.03;;;18.35;82.32
22830;BME280;11581;51.250;6.778;2023-07-31T08:49:30;100429.78;;;19.45;82.27
22830;BME280;11581;51.250;6.778;2023-07-31T08:51:58;100285.66;;;18.55;82.35
22830;BME280;11581;51.250;6.778;2023-07-31T08:54:25;100478.59;;;19.76;82.28
22830;BME280;11581;51.250;6.778;2023-07-31T08:56:55;100481.50;;;19.75;82.70
22830;BME280;11581;51.250;6.778;2023-07-31T08:59:23;100476.94;;;19.75;82.51
22830;BME280;11581;51.250;6.778;2023-07-31T09:01:53;100292.75;;;18.50;82.23
22830;BME280;11581;51.250;6.778;2023-07-31T09:04:23;100469.84;;;19.74;82.16
22830;BME280;11581;51.250;6.778;2023-07-31T09:06:54;100486.28;;;19.73;82.20
22830;BME280;11581;51.250;6.778;2023-07-31T09:09:23;100488.19;;;19.72;82.90
22830;BME280;11581;51.250;6.778;2023-07-31T09:11:50;100489.00;;;19.73;82.71
22830;BME280;11581;51.250;6.778;2023-07-31T09:14:18;100408.19;;;19.19;82.99
22830;BME280;11581;51.250;6.778;2023-07-31T09:16:54;100478.59;;;19.70;83.00
22830;BME280;11581;51.250;6.778;2023-07-31T09:19:25;100494.03;;;19.69;83.24
22830;BME280;11581;51.250;6.778;2023-07-31T09:21:54;100457.44;;;19.54;83.69
22830;BME280;11581;51.250;6.778;2023-07-31T09:24:28;100487.78;;;19.69;83.40
22830;BME280;11581;51.250;6.778;2023-07-31T09:26:56;100455.56;;;19.54;84.18
22830;BME280;11581;51.250;6.778;2023-07-31T09:29:24;100418.78;;;19.34;84.39
22830;BME280;11581;51.250;6.778;2023-07-31T09:31:52;100487.13;;;19.73;84.57
22830;BME280;11581;51.250;6.778;2023-07-31T09:34:20;100522.31;;;19.73;84.53
22830;BME280;11581;51.250;6.778;2023-07-31T09:36:50;100470.69;;;19.75;84.46
22830;BME280;11581;51.250;6.778;2023-07-31T09:39:20;100464.44;;;19.74;84.48
22830;BME280;11581;51.250;6.778;2023-07-31T09:41:48;100460.72;;;19.75;84.83
22830;BME280;11581;51.250;6.778;2023-07-31T09:44:37;100467.16;;;19.74;84.61
22830;BME280;11581;51.250;6.778;2023-07-31T09:47:21;100486.72;;;19.76;85.11
22830;BME280;11581;51.250;6.778;2023-07-31T09:49:49;100464.00;;;19.77;85.82
22830;BME280;11581;51.250;6.778;2023-07-31T09:52:16;100452.59;;;19.75;86.11
22830;BME280;11581;51.250;6.778;2023-07-31T09:54:44;100460.03;;;19.80;85.76
22830;BME280;11581;51.250;6.778;2023-07-31T09:57:11;100458.19;;;19.80;85.86
22830;BME280;11581;51.250;6.778;2023-07-31T09:59:39;100436.16;;;19.70;86.11
22830;BME280;11581;51.250;6.778;2023-07-31T10:02:07;100461.50;;;19.82;86.32
22830;BME280;11581;51.250;6.778;2023-07-31T10:04:38;100464.22;;;19.82;85.99
22830;BME280;11581;51.250;6.778;2023-07-31T10:07:05;100461.50;;;19.82;85.83
22830;BME280;11581;51.250;6.778;2023-07-31T10:09:33;100398.81;;;19.48;85.52
22830;BME280;11581;51.250;6.778;2023-07-31T10:12:07;100421.41;;;19.60;85.18
22830;BME280;11581;51.250;6.778;2023-07-31T10:14:36;100451.13;;;19.79;85.91
22830;BME280;11581;51.250;6.778;2023-07-31T10:17:05;100453.81;;;19.79;86.06
22830;BME280;11581;51.250;6.778;2023-07-31T10:19:32;100449.88;;;19.75;86.08
22830;BME280;11581;51.250;6.778;2023-07-31T10:22:02;100460.28;;;19.78;85.79
22830;BME280;11581;51.250;6.778;2023-07-31T10:24:29;100461.09;;;19.79;86.09
22830;BME280;11581;51.250;6.778;2023-07-31T10:27:01;100451.13;;;19.79;86.03
22830;BME280;11581;51.250;6.778;2023-07-31T10:29:32;100449.84;;;19.82;86.36
22830;BME280;11581;51.250;6.778;2023-07-31T10:31:59;100455.69;;;19.85;87.07
22830;BME280;11581;51.250;6.778;2023-07-31T10:34:27;100304.91;;;19.04;87.05
22830;BME280;11581;51.250;6.778;2023-07-31T10:37:22;100445.22;;;19.96;87.15
22830;BME280;11581;51.250;6.778;2023-07-31T10:39:57;100443.94;;;20.05;87.33
22830;BME280;11581;51.250;6.778;2023-07-31T10:42:29;100414.81;;;19.93;88.01
22830;BME280;11581;51.250;6.778;2023-07-31T10:44:59;100389.41;;;19.94;88.00
22830;BME280;11581;51.250;6.778;2023-07-31T10:47:26;100420.03;;;20.33;88.09
22830;BME280;11581;51.250;6.778;2023-07-31T10:50:12;100436.63;;;20.43;86.07
22830;BME280;11581;51.250;6.778;2023-07-31T10:52:39;100387.81;;;20.25;87.21
22830;BME280;11581;51.250;6.778;2023-07-31T10:55:27;100387.53;;;20.33;85.00
22830;BME280;11581;51.250;6.778;2023-07-31T10:57:57;100375.41;;;20.42;85.63
22830;BME280;11581;51.250;6.778;2023-07-31T11:00:28;100380.81;;;20.42;83.32
22830;BME280;11581;51.250;6.778;2023-07-31T11:03:03;100349.19;;;20.05;82.30
22830;BME280;11581;51.250;6.778;2023-07-31T11:05:45;100425.06;;;20.85;81.40
22830;BME280;11581;51.250;6.778;2023-07-31T11:08:19;100408.03;;;20.78;82.70
22830;BME280;11581;51.250;6.778;2023-07-31T11:10:49;100423.38;;;20.90;82.14
22830;BME280;11581;51.250;6.778;2023-07-31T11:13:16;100433.78;;;20.93;82.39
22830;BME280;11581;51.250;6.778;2023-07-31T11:15:46;100430.03;;;20.94;81.81
22830;BME280;11581;51.250;6.778;2023-07-31T11:18:13;100408.75;;;20.91;82.20
22830;BME280;11581;51.250;6.778;2023-07-31T11:20:40;100427.88;;;21.03;82.19
22830;BME280;11581;51.250;6.778;2023-07-31T11:23:09;100309.78;;;20.15;81.36
22830;BME280;11581;51.250;6.778;2023-07-31T11:25:37;100390.88;;;20.84;82.20
22830;BME280;11581;51.250;6.778;2023-07-31T11:28:09;100359.34;;;20.71;81.48
22830;BME280;11581;51.250;6.778;2023-07-31T11:30:41;100466.47;;;21.23;81.99
22830;BME280;11581;51.250;6.778;2023-07-31T11:33:12;100396.41;;;21.02;80.93
22830;BME280;11581;51.250;6.778;2023-07-31T11:35:43;100425.44;;;21.37;80.25
22830;BME280;11581;51.250;6.778;2023-07-31T11:38:11;100365.91;;;21.06;80.95
22830;BME280;11581;51.250;6.778;2023-07-31T11:40:41;100422.78;;;21.49;79.48
22830;BME280;11581;51.250;6.778;2023-07-31T11:43:08;100413.75;;;21.55;80.46
22830;BME280;11581;51.250;6.778;2023-07-31T11:45:40;100399.22;;;21.49;79.66
22830;BME280;11581;51.250;6.778;2023-07-31T11:48:08;100420.31;;;21.65;80.32
22830;BME280;11581;51.250;6.778;2023-07-31T11:50:40;100415.84;;;21.71;79.40
22830;BME280;11581;51.250;6.778;2023-07-31T11:53:08;100415.50;;;21.67;79.12
22830;BME280;11581;51.250;6.778;2023-07-31T11:55:36;100415.72;;;21.84;79.74
22830;BME280;11581;51.250;6.778;2023-07-31T11:58:03;100406.06;;;21.88;79.46
22830;BME280;11581;51.250;6.778;2023-07-31T12:00:30;100373.50;;;21.70;79.04
22830;BME280;11581;51.250;6.778;2023-07-31T12:02:58;100409.53;;;21.95;78.69
22830;BME280;11581;51.250;6.778;2023-07-31T12:05:25;100414.50;;;21.98;78.52
22830;BME280;11581;51.250;6.778;2023-07-31T12:07:55;100418.88;;;21.99;77.66
22830;BME280;11581;51.250;6.778;2023-07-31T12:10:25;100393.75;;;22.04;78.32
22830;BME280;11581;51.250;6.778;2023-07-31T12:12:59;100351.63;;;21.65;76.19
22830;BME280;11581;51.250;6.778;2023-07-31T12:15:35;100398.50;;;22.08;74.62
22830;BME280;11581;51.250;6.778;2023-07-31T12:18:07;100419.16;;;22.09;74.99
22830;BME280;11581;51.250;6.778;2023-07-31T12:20:40;100328.72;;;21.61;74.67
22830;BME280;11581;51.250;6.778;2023-07-31T12:23:14;100369.72;;;21.89;74.97
22830;BME280;11581;51.250;6.778;2023-07-31T12:25:42;100406.53;;;22.15;77.47
22830;BME280;11581;51.250;6.778;2023-07-31T12:28:10;100395.31;;;22.11;77.20
22830;BME280;11581;51.250;6.778;2023-07-31T12:30:39;100341.38;;;21.85;77.86
22830;BME280;11581;51.250;6.778;2023-07-31T12:33:12;100404.69;;;22.27;77.53
22830;BME280;11581;51.250;6.778;2023-07-31T12:35:43;100356.53;;;22.04;77.98
22830;BME280;11581;51.250;6.778;2023-07-31T12:38:11;100399.31;;;22.38;78.52
22830;BME280;11581;51.250;6.778;2023-07-31T12:40:41;100408.63;;;22.42;77.37
22830;BME280;11581;51.250;6.778;2023-07-31T12:43:08;100230.25;;;21.31;78.07
22830;BME280;11581;51.250;6.778;2023-07-31T12:45:37;100375.78;;;22.32;78.23
22830;BME280;11581;51.250;6.778;2023-07-31T12:48:04;100404.03;;;22.43;77.80
22830;BME280;11581;51.250;6.778;2023-07-31T12:50:31;100284.72;;;21.77;77.61
22830;BME280;11581;51.250;6.778;2023-07-31T12:52:58;100394.25;;;22.42;77.84
22830;BME280;11581;51.250;6.778;2023-07-31T12:55:25;100245.88;;;21.47;77.49
22830;BME280;11581;51.250;6.778;2023-07-31T12:57:53;100386.31;;;22.40;76.86